Time;durP1;ratioP1;P1;durP2;ratioP2;P2;SDS_P1;SDS_P2;PMS_P1;PMS_P2;Temp;Humidity;BMP_temperature;BMP_pressure;BME280_temperature;BME280_humidity;BME280_pressure;Samples;Min_cycle;Max_cycle;Signal;HPM_P1;HPM_P2
2021/03/03 00:01:58;;;;;;;14.23;11.37;;;3.90;99.90;;;;;;5112298;28;20194;-74
2021/03/03 00:04:25;;;;;;;15.70;10.70;;;4.00;99.90;;;;;;5112269;28;20728;-74
2021/03/03 00:06:52;;;;;;;13.07;10.43;;;3.90;99.90;;;;;;5112260;28;20212;-74
2021/03/03 00:09:18;;;;;;;12.27;9.70;;;4.00;99.90;;;;;;5112590;28;20210;-74
2021/03/03 00:11:44;;;;;;;11.30;10.07;;;3.90;99.90;;;;;;5112150;28;20225;-74
2021/03/03 00:14:10;;;;;;;11.27;9.60;;;4.00;99.90;;;;;;5112265;28;20251;-74
2021/03/03 00:16:36;;;;;;;12.77;9.73;;;3.90;99.90;;;;;;5112246;28;20202;-74
2021/03/03 00:19:03;;;;;;;11.57;9.87;;;3.90;99.90;;;;;;5111935;28;20618;-74
2021/03/03 00:21:30;;;;;;;12.83;9.80;;;3.90;99.90;;;;;;5111960;28;20202;-74
2021/03/03 00:23:56;;;;;;;10.23;9.00;;;3.80;99.90;;;;;;5112088;28;20227;-74
2021/03/03 00:26:22;;;;;;;11.00;9.60;;;3.80;99.90;;;;;;5112164;28;20202;-74
2021/03/03 00:28:48;;;;;;;19.00;10.73;;;3.90;99.90;;;;;;5112350;28;20210;-74
2021/03/03 00:31:15;;;;;;;13.10;9.93;;;3.80;99.90;;;;;;5112124;28;20252;-74
2021/03/03 00:33:41;;;;;;;13.00;9.77;;;3.80;99.90;;;;;;5112058;28;20202;-74
2021/03/03 00:36:08;;;;;;;14.63;10.00;;;3.90;99.90;;;;;;5112226;28;20201;-74
2021/03/03 00:38:34;;;;;;;11.20;9.47;;;3.90;99.90;;;;;;5112087;28;20206;-74
2021/03/03 00:41:01;;;;;;;15.27;10.20;;;4.00;99.90;;;;;;5111321;28;20240;-74
2021/03/03 00:43:27;;;;;;;12.23;10.27;;;4.10;99.90;;;;;;5112176;28;20202;-74
2021/03/03 00:45:53;;;;;;;12.67;10.10;;;4.10;99.90;;;;;;5111455;28;20229;-74
2021/03/03 00:48:19;;;;;;;10.90;9.30;;;4.10;99.90;;;;;;5110537;28;20263;-74
2021/03/03 00:50:45;;;;;;;11.03;8.83;;;4.10;99.90;;;;;;5111270;28;20769;-74
2021/03/03 00:53:11;;;;;;;13.87;9.20;;;4.10;99.90;;;;;;5111751;28;20206;-74
2021/03/03 00:55:38;;;;;;;11.30;9.30;;;4.20;99.90;;;;;;5111710;28;20207;-74
2021/03/03 00:58:05;;;;;;;14.20;10.27;;;4.10;99.90;;;;;;5111661;28;20210;-74
2021/03/03 01:00:32;;;;;;;15.37;9.83;;;4.10;99.90;;;;;;5111140;28;20283;-74
2021/03/03 01:02:58;;;;;;;15.33;10.10;;;4.10;99.90;;;;;;5111481;28;20624;-74
2021/03/03 01:05:24;;;;;;;13.00;9.67;;;4.00;99.90;;;;;;5111618;28;20224;-74
2021/03/03 01:07:50;;;;;;;12.83;9.47;;;4.00;99.90;;;;;;5111028;28;20696;-74
2021/03/03 01:10:17;;;;;;;14.53;9.50;;;4.00;99.90;;;;;;5111209;28;20225;-74
2021/03/03 01:12:44;;;;;;;11.30;9.57;;;4.00;99.90;;;;;;5111188;28;20209;-74
2021/03/03 01:15:11;;;;;;;12.57;9.60;;;4.00;99.90;;;;;;5111016;28;20228;-74
2021/03/03 01:17:38;;;;;;;13.00;9.53;;;3.90;99.90;;;;;;5111397;28;20258;-74
2021/03/03 01:20:06;;;;;;;10.37;8.33;;;3.90;99.90;;;;;;5111126;28;20213;-74
2021/03/03 01:22:32;;;;;;;12.83;9.10;;;3.90;99.90;;;;;;5111144;28;20259;-73
2021/03/03 01:24:58;;;;;;;11.00;8.87;;;3.80;99.90;;;;;;5110751;28;20206;-74
2021/03/03 01:27:24;;;;;;;12.97;8.97;;;3.80;99.90;;;;;;5110506;28;20668;-73
2021/03/03 01:29:51;;;;;;;11.23;8.23;;;3.80;99.90;;;;;;5110816;28;20221;-74
2021/03/03 01:32:17;;;;;;;10.93;9.40;;;3.70;99.90;;;;;;5110859;28;20209;-74
2021/03/03 01:34:43;;;;;;;11.10;8.50;;;3.70;99.90;;;;;;5110792;28;20209;-73
2021/03/03 01:37:09;;;;;;;11.03;8.10;;;3.70;99.90;;;;;;5110554;28;20205;-74
2021/03/03 01:39:36;;;;;;;11.73;9.23;;;3.70;99.90;;;;;;5110716;28;20202;-74
2021/03/03 01:42:02;;;;;;;11.43;9.13;;;3.50;99.90;;;;;;5110581;28;20213;-74
2021/03/03 01:44:28;;;;;;;16.27;9.50;;;3.50;99.90;;;;;;5110594;28;20206;-74
2021/03/03 01:46:55;;;;;;;10.97;8.80;;;3.50;99.90;;;;;;5110182;28;20237;-74
2021/03/03 01:49:21;;;;;;;13.27;9.50;;;3.40;99.90;;;;;;5110203;28;20206;-74
2021/03/03 01:51:47;;;;;;;12.90;10.60;;;3.40;99.90;;;;;;5110137;28;20327;-74
2021/03/03 01:54:13;;;;;;;12.57;9.80;;;3.40;99.90;;;;;;5109949;28;21011;-74
2021/03/03 01:56:39;;;;;;;13.27;9.47;;;3.30;99.90;;;;;;5109910;28;20247;-74
2021/03/03 01:59:05;;;;;;;11.87;9.83;;;3.30;99.90;;;;;;5109844;28;20206;-74
2021/03/03 02:01:31;;;;;;;13.07;8.80;;;3.30;99.90;;;;;;5109711;28;20191;-74
2021/03/03 02:03:58;;;;;;;12.73;9.40;;;3.20;99.90;;;;;;5110033;28;20202;-74
2021/03/03 02:06:29;;;;;;;12.67;9.30;;;3.20;99.90;;;;;;5110111;28;20206;-74
2021/03/03 02:09:02;;;;;;;12.33;9.37;;;3.20;99.90;;;;;;5109936;28;20194;-75
2021/03/03 02:11:38;;;;;;;11.60;8.60;;;3.30;99.90;;;;;;5109976;28;20295;-74
2021/03/03 02:14:07;;;;;;;9.87;8.77;;;3.30;99.90;;;;;;5104823;28;20206;-74
2021/03/03 02:16:35;;;;;;;12.57;9.53;;;3.30;99.90;;;;;;5089367;28;20207;-74
2021/03/03 02:19:04;;;;;;;10.67;9.57;;;3.20;99.90;;;;;;5089475;28;20233;-74
2021/03/03 02:21:33;;;;;;;11.47;9.13;;;3.10;99.90;;;;;;5089429;28;20210;-74
2021/03/03 02:24:06;;;;;;;11.63;8.60;;;3.10;99.90;;;;;;5089632;28;20206;-74
2021/03/03 02:26:35;;;;;;;12.30;9.50;;;3.10;99.90;;;;;;5089621;28;20202;-74
2021/03/03 02:29:03;;;;;;;10.63;8.67;;;3.00;99.90;;;;;;5089561;28;20203;-74
2021/03/03 02:31:29;;;;;;;9.80;8.53;;;3.10;99.90;;;;;;5088861;28;20594;-74
2021/03/03 02:33:57;;;;;;;12.13;9.63;;;3.00;99.90;;;;;;5088993;28;21023;-74
2021/03/03 02:36:24;;;;;;;11.93;9.60;;;3.00;99.90;;;;;;5089155;28;20264;-75
2021/03/03 02:38:50;;;;;;;12.00;9.97;;;3.00;99.90;;;;;;5089085;28;20207;-74
2021/03/03 02:41:18;;;;;;;15.73;10.20;;;3.00;99.90;;;;;;5089143;28;20207;-74
2021/03/03 02:43:46;;;;;;;12.63;8.70;;;3.00;99.90;;;;;;5088953;28;20304;-74
2021/03/03 02:46:12;;;;;;;11.80;9.83;;;3.00;99.90;;;;;;5088945;28;20226;-75
2021/03/03 02:48:39;;;;;;;15.57;10.10;;;3.00;99.90;;;;;;5089392;28;20203;-74
2021/03/03 02:51:06;;;;;;;11.57;9.03;;;3.00;99.90;;;;;;5088904;28;20731;-74
2021/03/03 02:53:33;;;;;;;11.17;9.47;;;3.00;99.90;;;;;;5089263;28;20199;-74
2021/03/03 02:55:59;;;;;;;12.03;9.80;;;3.00;99.90;;;;;;5089233;28;20211;-74
2021/03/03 02:58:25;;;;;;;11.50;9.07;;;3.00;99.90;;;;;;5088865;28;20684;-74
2021/03/03 03:00:54;;;;;;;10.47;9.37;;;3.00;99.90;;;;;;5088508;28;20234;-74
2021/03/03 03:03:25;;;;;;;10.60;8.87;;;3.00;99.90;;;;;;5088910;28;20217;-74
2021/03/03 03:05:59;;;;;;;16.20;9.20;;;3.00;99.90;;;;;;5088962;28;20191;-74
2021/03/03 03:08:28;;;;;;;15.37;10.90;;;3.00;99.90;;;;;;5088538;28;20641;-74
2021/03/03 03:10:56;;;;;;;16.70;11.93;;;3.00;99.90;;;;;;5088608;28;20264;-74
2021/03/03 03:13:23;;;;;;;15.63;11.30;;;3.00;99.90;;;;;;5088131;28;20617;-74
2021/03/03 03:15:51;;;;;;;14.87;11.03;;;3.00;99.90;;;;;;5088656;28;20210;-74
2021/03/03 03:18:22;;;;;;;18.13;11.47;;;3.10;99.90;;;;;;5088689;28;20208;-74
2021/03/03 03:20:51;;;;;;;12.90;9.60;;;3.00;99.90;;;;;;5088575;28;20520;-74
2021/03/03 03:23:20;;;;;;;11.70;9.60;;;3.00;99.90;;;;;;5088519;28;20205;-74
2021/03/03 03:25:47;;;;;;;13.93;10.53;;;2.90;99.90;;;;;;5088498;28;20214;-74
2021/03/03 03:28:14;;;;;;;13.57;9.73;;;2.90;99.90;;;;;;5088373;28;20198;-74
2021/03/03 03:30:40;;;;;;;12.97;9.13;;;3.00;99.90;;;;;;5088375;28;20313;-74
2021/03/03 03:33:08;;;;;;;12.33;9.17;;;3.00;99.90;;;;;;5087987;28;20676;-74
2021/03/03 03:35:36;;;;;;;11.97;9.37;;;3.00;99.90;;;;;;5088352;28;20256;-74
2021/03/03 03:38:02;;;;;;;13.37;9.73;;;2.90;99.90;;;;;;5088092;28;20221;-74
2021/03/03 03:40:29;;;;;;;14.57;9.47;;;2.90;99.90;;;;;;5088583;28;20203;-74
2021/03/03 03:42:56;;;;;;;14.50;10.23;;;2.90;99.90;;;;;;5088295;28;20207;-74
2021/03/03 03:45:24;;;;;;;15.63;10.73;;;2.80;99.90;;;;;;5087969;28;20783;-74
2021/03/03 03:47:50;;;;;;;14.97;10.60;;;2.80;99.90;;;;;;5088369;28;20215;-74
2021/03/03 03:50:18;;;;;;;14.07;10.40;;;2.80;99.90;;;;;;5088235;28;20210;-74
2021/03/03 03:52:46;;;;;;;13.83;9.83;;;2.80;99.90;;;;;;5088309;28;20199;-74
2021/03/03 03:55:13;;;;;;;16.43;10.73;;;2.70;99.90;;;;;;5088216;28;20213;-74
2021/03/03 03:57:50;;;;;;;12.83;9.30;;;2.70;99.90;;;;;;5088185;28;20214;-74
2021/03/03 04:00:18;;;;;;;16.13;10.37;;;2.70;99.90;;;;;;5087824;28;20234;-74
2021/03/03 04:02:44;;;;;;;12.90;9.43;;;2.60;99.90;;;;;;5088080;28;20252;-74
2021/03/03 04:05:12;;;;;;;12.80;9.63;;;2.70;99.90;;;;;;5087907;28;20203;-74
2021/03/03 04:07:38;;;;;;;13.73;9.80;;;2.70;99.90;;;;;;5088176;28;20202;-73
2021/03/03 04:10:07;;;;;;;15.50;9.27;;;2.70;99.90;;;;;;5088026;28;20264;-74
2021/03/03 04:12:33;;;;;;;14.47;9.83;;;2.70;99.90;;;;;;5087934;28;20657;-74
2021/03/03 04:14:59;;;;;;;12.93;9.90;;;2.70;99.90;;;;;;5087824;28;20661;-74
2021/03/03 04:17:25;;;;;;;13.97;10.07;;;2.80;99.90;;;;;;5088155;28;20222;-74
2021/03/03 04:19:52;;;;;;;15.83;10.17;;;2.80;99.90;;;;;;5088361;28;20568;-74
2021/03/03 04:22:18;;;;;;;15.13;9.57;;;2.80;99.90;;;;;;5087935;28;20247;-74
2021/03/03 04:24:44;;;;;;;15.17;9.97;;;2.90;99.90;;;;;;5091493;28;20202;-74
2021/03/03 04:27:11;;;;;;;14.20;9.40;;;2.90;99.90;;;;;;5091359;28;20199;-74
2021/03/03 04:29:37;;;;;;;11.67;8.83;;;2.90;99.90;;;;;;5091843;28;20202;-74
2021/03/03 04:32:04;;;;;;;13.07;9.33;;;2.80;99.90;;;;;;5091126;28;20246;-74
2021/03/03 04:34:30;;;;;;;15.07;10.70;;;2.90;99.90;;;;;;5091345;28;20279;-74
2021/03/03 04:36:56;;;;;;;15.70;10.27;;;3.00;99.90;;;;;;5091133;28;20658;-74
2021/03/03 04:39:22;;;;;;;16.20;10.20;;;3.10;99.90;;;;;;5090794;28;20558;-74
2021/03/03 04:41:48;;;;;;;14.23;9.97;;;3.00;99.90;;;;;;5091301;28;20202;-74
2021/03/03 04:44:15;;;;;;;14.97;10.00;;;3.10;99.90;;;;;;5091362;28;20207;-74
2021/03/03 04:46:41;;;;;;;12.67;10.20;;;3.00;99.90;;;;;;5090995;28;20231;-74
2021/03/03 04:49:08;;;;;;;14.37;10.57;;;3.00;99.90;;;;;;5090912;28;20224;-74
2021/03/03 04:51:35;;;;;;;19.70;13.23;;;3.00;99.90;;;;;;5091165;28;20234;-74
2021/03/03 04:54:01;;;;;;;16.20;11.20;;;3.00;99.90;;;;;;5091027;28;20207;-74
2021/03/03 04:56:28;;;;;;;15.77;10.90;;;3.10;99.90;;;;;;5090919;28;20233;-74
2021/03/03 04:58:54;;;;;;;18.27;12.07;;;3.20;99.90;;;;;;5091208;28;20207;-74
2021/03/03 05:01:21;;;;;;;15.73;11.50;;;3.10;99.90;;;;;;5090309;28;20288;-74
2021/03/03 05:03:47;;;;;;;18.53;11.43;;;3.10;99.90;;;;;;5091124;28;20203;-74
2021/03/03 05:06:15;;;;;;;17.40;12.20;;;3.10;99.90;;;;;;5090987;28;20210;-74
2021/03/03 05:08:41;;;;;;;16.40;11.73;;;3.00;99.90;;;;;;5091000;28;20211;-74
2021/03/03 05:11:07;;;;;;;13.87;10.97;;;2.90;99.90;;;;;;5090714;28;20594;-74
2021/03/03 05:13:33;;;;;;;16.10;10.30;;;2.80;99.90;;;;;;5090802;28;20821;-74
2021/03/03 05:16:00;;;;;;;15.90;10.97;;;2.70;99.90;;;;;;5090731;28;20210;-74
2021/03/03 05:18:27;;;;;;;14.93;10.57;;;2.70;99.90;;;;;;5090953;28;20218;-74
2021/03/03 05:20:53;;;;;;;15.93;10.77;;;2.70;99.90;;;;;;5090656;28;20210;-74
2021/03/03 05:23:27;;;;;;;14.07;10.47;;;2.70;99.90;;;;;;5090371;28;20726;-74
2021/03/03 05:25:53;;;;;;;13.80;10.43;;;2.60;99.90;;;;;;5090807;28;20195;-74
2021/03/03 05:28:19;;;;;;;16.60;10.80;;;2.70;99.90;;;;;;5090647;28;20268;-76
2021/03/03 05:30:45;;;;;;;14.60;10.93;;;2.70;99.90;;;;;;5090500;28;20226;-74
2021/03/03 05:33:11;;;;;;;13.83;9.90;;;2.70;99.90;;;;;;5090572;28;20209;-74
2021/03/03 05:35:38;;;;;;;15.57;11.27;;;2.60;99.90;;;;;;5089764;28;20210;-74
2021/03/03 05:38:04;;;;;;;13.83;10.53;;;2.50;99.90;;;;;;5090230;28;20228;-74
2021/03/03 05:40:30;;;;;;;14.90;11.23;;;2.50;99.90;;;;;;5090627;28;20203;-74
2021/03/03 05:42:57;;;;;;;17.13;11.30;;;2.50;99.90;;;;;;5090460;28;20272;-74
2021/03/03 05:45:23;;;;;;;17.47;11.10;;;2.40;99.90;;;;;;5090165;28;20226;-74
2021/03/03 05:47:50;;;;;;;16.37;11.00;;;2.40;99.90;;;;;;5090373;28;20202;-74
2021/03/03 05:50:19;;;;;;;15.87;10.70;;;2.40;99.90;;;;;;5089864;28;20260;-74
2021/03/03 05:52:46;;;;;;;16.37;11.33;;;2.40;99.90;;;;;;5089863;28;20681;-76
2021/03/03 05:55:13;;;;;;;16.87;12.27;;;2.40;99.90;;;;;;5089713;28;20256;-74
2021/03/03 05:57:40;;;;;;;18.20;13.30;;;2.50;99.90;;;;;;5089894;28;20202;-74
2021/03/03 06:00:08;;;;;;;20.53;14.03;;;2.70;99.90;;;;;;5089657;28;20248;-74
2021/03/03 06:02:37;;;;;;;20.47;13.17;;;2.80;99.90;;;;;;5089432;28;20206;-74
2021/03/03 06:05:04;;;;;;;20.67;14.57;;;2.90;99.90;;;;;;5089946;28;20210;-74
2021/03/03 06:07:31;;;;;;;20.80;14.10;;;2.90;99.90;;;;;;5089131;28;20264;-74
2021/03/03 06:09:58;;;;;;;22.83;14.57;;;3.00;99.90;;;;;;5089859;28;20216;-74
2021/03/03 06:12:24;;;;;;;18.53;13.40;;;3.00;99.90;;;;;;5089514;28;20592;-74
2021/03/03 06:14:50;;;;;;;19.67;13.00;;;3.00;99.90;;;;;;5089644;28;20222;-74
2021/03/03 06:17:16;;;;;;;19.83;13.40;;;3.00;99.90;;;;;;5089800;28;20208;-74
2021/03/03 06:19:43;;;;;;;19.33;13.77;;;2.90;99.90;;;;;;5089422;28;20786;-74
2021/03/03 06:22:22;;;;;;;20.10;14.07;;;2.90;99.90;;;;;;5089508;28;20215;-74
2021/03/03 06:24:49;;;;;;;22.10;14.90;;;2.90;99.90;;;;;;5089729;28;20209;-74
2021/03/03 06:27:16;;;;;;;19.30;14.20;;;2.80;99.90;;;;;;5089352;28;20211;-74
2021/03/03 06:30:00;;;;;;;21.07;15.20;;;2.80;99.90;;;;;;5089335;28;20569;-74
2021/03/03 06:32:26;;;;;;;20.37;14.87;;;2.90;99.90;;;;;;5089100;28;20222;-74
2021/03/03 06:34:52;;;;;;;21.60;14.83;;;2.90;99.90;;;;;;5089259;28;20202;-74
2021/03/03 06:37:18;;;;;;;22.50;15.57;;;3.00;99.90;;;;;;5089057;28;20213;-74
2021/03/03 06:39:44;;;;;;;23.60;16.13;;;3.00;99.90;;;;;;5089234;28;20303;-74
2021/03/03 06:42:24;;;;;;;22.57;14.97;;;3.10;99.90;;;;;;5088943;28;20665;-74
2021/03/03 06:44:52;;;;;;;20.93;14.80;;;3.00;99.90;;;;;;5089202;28;20272;-74
2021/03/03 06:47:19;;;;;;;23.57;15.33;;;3.10;99.90;;;;;;5088985;28;20389;-74
2021/03/03 06:49:45;;;;;;;21.07;14.33;;;3.10;99.90;;;;;;5089245;28;20210;-74
2021/03/03 06:52:12;;;;;;;19.57;14.53;;;3.00;99.90;;;;;;5088697;28;20716;-74
2021/03/03 06:54:38;;;;;;;23.20;15.73;;;3.00;99.90;;;;;;5089314;28;20207;-74
2021/03/03 06:57:05;;;;;;;21.73;14.60;;;3.10;99.90;;;;;;5088616;28;20657;-74
2021/03/03 06:59:32;;;;;;;20.33;14.60;;;3.10;99.90;;;;;;5088572;28;20345;-74
2021/03/03 07:02:00;;;;;;;21.00;14.93;;;3.20;99.90;;;;;;5088719;28;20202;-74
2021/03/03 07:04:29;;;;;;;19.90;14.30;;;3.20;99.90;;;;;;5088749;28;20202;-74
2021/03/03 07:06:57;;;;;;;20.20;15.13;;;3.30;99.90;;;;;;5088651;28;20266;-74
2021/03/03 07:09:24;;;;;;;22.30;14.67;;;3.30;99.90;;;;;;5088645;28;20504;-74
2021/03/03 07:12:00;;;;;;;18.53;13.67;;;3.40;99.90;;;;;;5088242;28;20740;-74
2021/03/03 07:14:26;;;;;;;19.43;14.13;;;3.50;99.90;;;;;;5088978;28;20195;-74
2021/03/03 07:17:07;;;;;;;19.80;14.73;;;3.60;99.90;;;;;;5088516;28;20276;-74
2021/03/03 07:19:36;;;;;;;23.63;16.07;;;3.80;99.90;;;;;;5088557;28;20291;-74
2021/03/03 07:22:03;;;;;;;26.40;16.80;;;3.80;99.90;;;;;;5088251;28;20207;-74
2021/03/03 07:24:29;;;;;;;26.83;17.03;;;3.90;99.90;;;;;;5088644;28;20206;-74
2021/03/03 07:26:56;;;;;;;23.43;15.37;;;4.00;99.90;;;;;;5088248;28;20210;-74
2021/03/03 07:29:22;;;;;;;23.27;15.67;;;4.10;99.90;;;;;;5088160;28;20268;-74
2021/03/03 07:31:48;;;;;;;23.57;16.07;;;4.20;99.90;;;;;;5088126;28;20231;-74
2021/03/03 07:34:17;;;;;;;21.93;16.67;;;4.20;99.90;;;;;;5087788;28;20251;-74
2021/03/03 07:36:50;;;;;;;21.60;15.30;;;4.20;99.90;;;;;;5088496;28;20221;-74
2021/03/03 07:39:19;;;;;;;23.57;15.93;;;4.10;99.90;;;;;;5088156;28;20273;-74
2021/03/03 07:41:47;;;;;;;20.20;15.47;;;4.10;99.90;;;;;;5088067;28;20657;-74
2021/03/03 07:44:20;;;;;;;21.07;15.83;;;4.10;99.90;;;;;;5088183;28;20554;-74
2021/03/03 07:46:48;;;;;;;24.63;15.50;;;4.10;99.90;;;;;;5088051;28;20684;-74
2021/03/03 07:49:21;;;;;;;21.33;14.87;;;4.20;99.90;;;;;;5087969;28;20203;-74
2021/03/03 07:51:49;;;;;;;19.23;13.93;;;4.10;99.90;;;;;;5088065;28;20268;-74
2021/03/03 07:54:15;;;;;;;21.17;14.43;;;4.10;99.90;;;;;;5088128;28;20202;-74
2021/03/03 07:56:42;;;;;;;17.67;13.97;;;4.20;99.90;;;;;;5088279;28;20230;-74
2021/03/03 07:59:10;;;;;;;18.17;14.50;;;4.20;99.90;;;;;;5090378;28;20206;-74
2021/03/03 08:01:37;;;;;;;20.17;14.40;;;4.20;99.90;;;;;;5091992;28;20206;-74
2021/03/03 08:04:04;;;;;;;19.47;14.10;;;4.30;99.90;;;;;;5092305;28;20202;-74
2021/03/03 08:06:36;;;;;;;20.17;14.87;;;4.10;99.90;;;;;;5091792;28;20621;-74
2021/03/03 08:09:20;;;;;;;21.10;14.37;;;4.10;99.90;;;;;;5091829;28;20566;-74
2021/03/03 08:12:00;;;;;;;22.23;15.00;;;4.30;99.90;;;;;;5091903;28;20222;-74
2021/03/03 08:14:41;;;;;;;18.17;13.93;;;4.40;99.90;;;;;;5091886;28;20187;-74
2021/03/03 08:17:10;;;;;;;18.90;14.60;;;4.50;99.90;;;;;;5091642;28;20191;-75
2021/03/03 08:20:07;;;;;;;20.27;14.30;;;4.70;99.90;;;;;;5091244;28;20213;-74
2021/03/03 08:22:54;;;;;;;17.40;13.97;;;4.80;99.90;;;;;;5091892;28;20195;-74
2021/03/03 08:25:43;;;;;;;19.93;14.80;;;5.00;99.90;;;;;;5091550;28;20203;-74
2021/03/03 08:28:40;;;;;;;19.10;14.60;;;5.10;99.90;;;;;;5091688;28;20297;-74
2021/03/03 08:31:33;;;;;;;21.47;14.93;;;5.40;99.90;;;;;;5091287;28;20310;-74
2021/03/03 08:34:06;;;;;;;18.93;14.37;;;5.50;99.90;;;;;;5091882;28;20217;-74
2021/03/03 08:36:51;;;;;;;23.00;16.10;;;5.60;99.90;;;;;;5091686;28;20203;-74
2021/03/03 08:39:36;;;;;;;19.23;15.47;;;5.60;99.90;;;;;;5091481;28;20244;-74
2021/03/03 08:42:18;;;;;;;21.00;16.27;;;5.70;99.90;;;;;;5091386;28;20191;-74
2021/03/03 08:45:01;;;;;;;23.30;16.77;;;5.80;99.90;;;;;;5082136;28;20231;-74
2021/03/03 08:47:52;;;;;;;25.97;18.00;;;5.90;99.90;;;;;;5090884;28;20283;-74
2021/03/03 08:50:38;;;;;;;22.80;17.10;;;6.00;99.90;;;;;;5090817;28;20203;-74
2021/03/03 08:53:27;;;;;;;23.67;17.57;;;6.10;99.90;;;;;;5091272;28;20214;-74
2021/03/03 08:55:56;;;;;;;25.70;18.27;;;6.30;99.90;;;;;;5091140;28;20653;-74
2021/03/03 08:58:48;;;;;;;20.57;16.40;;;6.40;99.90;;;;;;5090467;28;20218;-74
2021/03/03 09:01:14;;;;;;;23.00;17.17;;;6.40;99.90;;;;;;5090561;28;20234;-74
2021/03/03 09:03:40;;;;;;;22.33;17.67;;;6.60;99.90;;;;;;5091391;28;20210;-74
2021/03/03 09:06:07;;;;;;;24.07;18.33;;;6.70;99.90;;;;;;5091051;28;20203;-74
2021/03/03 09:08:33;;;;;;;22.93;17.03;;;6.80;99.90;;;;;;5090836;28;20202;-74
2021/03/03 09:11:00;;;;;;;20.40;16.27;;;6.70;99.90;;;;;;5089209;28;20223;-74
2021/03/03 09:13:28;;;;;;;20.70;16.43;;;6.70;99.90;;;;;;5090375;28;20673;-74
2021/03/03 09:16:05;;;;;;;26.17;17.70;;;6.80;99.90;;;;;;5090783;28;20207;-75
2021/03/03 09:18:32;;;;;;;23.63;17.17;;;6.90;99.90;;;;;;5090815;28;20202;-75
2021/03/03 09:21:06;;;;;;;24.33;18.20;;;7.00;99.90;;;;;;5090795;28;20221;-74
2021/03/03 09:23:33;;;;;;;24.40;18.03;;;7.10;99.90;;;;;;5090748;28;20206;-74
2021/03/03 09:26:00;;;;;;;22.40;17.57;;;7.10;99.90;;;;;;5090945;28;20260;-74
2021/03/03 09:28:40;;;;;;;22.07;16.57;;;7.20;99.90;;;;;;5090616;28;20209;-75
2021/03/03 09:31:07;;;;;;;23.63;17.97;;;7.30;99.90;;;;;;5090254;28;20314;-75
2021/03/03 09:33:34;;;;;;;21.97;17.00;;;7.30;99.90;;;;;;5090228;28;20202;-77
2021/03/03 09:36:02;;;;;;;25.30;16.50;;;7.40;99.90;;;;;;5090032;28;20209;-75
2021/03/03 09:38:30;;;;;;;20.43;16.90;;;7.40;99.90;;;;;;5090312;28;20207;-74
2021/03/03 09:41:08;;;;;;;22.60;17.90;;;7.50;99.90;;;;;;5090307;28;20400;-75
2021/03/03 09:43:36;;;;;;;23.07;17.33;;;7.60;99.90;;;;;;5090517;28;20194;-75
2021/03/03 09:46:02;;;;;;;21.13;17.33;;;7.70;99.90;;;;;;5090092;28;20673;-75
2021/03/03 09:48:29;;;;;;;22.33;18.37;;;7.80;99.90;;;;;;5090293;28;20207;-75
2021/03/03 09:50:57;;;;;;;26.73;17.73;;;7.80;99.90;;;;;;5090158;28;20211;-75
2021/03/03 09:53:24;;;;;;;20.80;16.70;;;7.90;99.90;;;;;;5089876;28;20209;-75
2021/03/03 09:55:51;;;;;;;23.70;18.00;;;8.00;99.90;;;;;;5090285;28;20199;-75
2021/03/03 09:58:18;;;;;;;23.73;19.03;;;8.10;99.90;;;;;;5089991;28;20210;-75
2021/03/03 10:00:46;;;;;;;24.60;18.13;;;8.20;99.90;;;;;;5089445;28;20234;-75
2021/03/03 10:03:14;;;;;;;25.07;18.43;;;8.20;99.90;;;;;;5089679;28;20213;-75
2021/03/03 10:05:41;;;;;;;25.97;19.17;;;8.30;99.90;;;;;;5089641;28;20264;-75
2021/03/03 10:08:10;;;;;;;26.90;18.90;;;8.40;99.90;;;;;;5089905;28;20285;-75
2021/03/03 10:10:39;;;;;;;25.57;19.43;;;8.40;99.90;;;;;;5089470;28;20207;-75
2021/03/03 10:13:06;;;;;;;22.77;19.00;;;8.40;99.90;;;;;;5089819;28;20203;-75
2021/03/03 10:15:34;;;;;;;24.83;18.57;;;8.50;99.90;;;;;;5089552;28;20264;-75
2021/03/03 10:18:06;;;;;;;23.53;18.40;;;8.50;99.90;;;;;;5089592;28;20238;-75
2021/03/03 10:20:36;;;;;;;25.13;19.03;;;8.50;99.90;;;;;;5089205;28;20198;-75
2021/03/03 10:23:08;;;;;;;25.87;18.63;;;8.70;99.90;;;;;;5089421;28;20203;-76
2021/03/03 10:25:37;;;;;;;25.03;18.83;;;8.70;99.90;;;;;;5089371;28;20211;-75
2021/03/03 10:28:09;;;;;;;28.07;19.60;;;8.80;99.90;;;;;;5089203;28;20292;-75
2021/03/03 10:30:38;;;;;;;23.97;18.10;;;8.90;99.90;;;;;;5089168;28;20190;-75
2021/03/03 10:33:07;;;;;;;25.40;18.33;;;9.00;99.90;;;;;;5088933;28;20606;-75
2021/03/03 10:35:46;;;;;;;23.67;18.23;;;9.10;99.90;;;;;;5089242;28;20230;-75
2021/03/03 10:38:14;;;;;;;23.70;18.80;;;9.10;99.90;;;;;;5089154;28;20579;-75
2021/03/03 10:40:42;;;;;;;24.57;18.03;;;9.30;99.90;;;;;;5088973;28;20206;-75
2021/03/03 10:43:11;;;;;;;23.53;18.10;;;9.30;99.90;;;;;;5088950;28;20202;-75
2021/03/03 10:45:39;;;;;;;24.90;18.87;;;9.40;99.90;;;;;;5088856;28;20246;-75
2021/03/03 10:48:08;;;;;;;24.90;18.77;;;9.50;99.90;;;;;;5088733;28;20209;-75
2021/03/03 10:50:38;;;;;;;22.90;19.50;;;9.50;99.90;;;;;;5088597;28;20211;-75
2021/03/03 10:53:06;;;;;;;24.20;19.13;;;9.60;99.90;;;;;;5088623;28;20692;-75
2021/03/03 10:55:35;;;;;;;23.40;19.23;;;9.70;99.90;;;;;;5088853;28;20325;-75
2021/03/03 10:58:05;;;;;;;22.70;18.43;;;9.80;99.90;;;;;;5089114;28;20234;-75
2021/03/03 11:00:32;;;;;;;24.80;19.40;;;9.90;99.90;;;;;;5088188;28;20755;-75
2021/03/03 11:03:03;;;;;;;26.27;20.53;;;10.10;99.90;;;;;;5088689;28;20301;-75
2021/03/03 11:05:31;;;;;;;26.10;19.53;;;10.20;99.90;;;;;;5088765;28;20202;-76
2021/03/03 11:07:58;;;;;;;26.50;19.70;;;10.20;99.90;;;;;;5088723;28;20206;-75
2021/03/03 11:10:26;;;;;;;26.10;20.07;;;10.40;99.90;;;;;;5088636;28;20202;-75
2021/03/03 11:12:52;;;;;;;29.13;20.27;;;10.50;99.90;;;;;;5088468;28;20242;-76
2021/03/03 11:15:19;;;;;;;27.43;19.43;;;10.70;99.90;;;;;;5088965;28;20203;-76
2021/03/03 11:17:46;;;;;;;25.37;20.20;;;10.80;99.90;;;;;;5088924;28;20203;-76
2021/03/03 11:20:13;;;;;;;24.53;20.10;;;10.80;99.90;;;;;;5088586;28;20234;-75
2021/03/03 11:22:41;;;;;;;34.03;21.07;;;10.90;99.90;;;;;;5088247;28;20259;-76
2021/03/03 11:25:08;;;;;;;25.23;20.23;;;11.10;99.90;;;;;;5088971;28;20202;-75
2021/03/03 11:27:35;;;;;;;25.77;20.20;;;11.10;99.90;;;;;;5088644;28;20213;-75
2021/03/03 11:30:02;;;;;;;28.40;20.47;;;11.20;99.90;;;;;;5088505;28;20203;-75
2021/03/03 11:32:28;;;;;;;28.23;20.63;;;11.30;99.90;;;;;;5088174;28;20226;-76
2021/03/03 11:34:55;;;;;;;26.23;20.30;;;11.40;99.90;;;;;;5088755;28;20234;-77
2021/03/03 11:37:22;;;;;;;25.00;19.33;;;11.50;99.90;;;;;;5088210;28;20206;-76
2021/03/03 11:39:51;;;;;;;26.37;19.83;;;11.60;99.90;;;;;;5088820;28;20203;-75
2021/03/03 11:42:18;;;;;;;26.37;19.63;;;11.80;99.90;;;;;;5088275;28;20202;-76
2021/03/03 11:44:44;;;;;;;25.33;20.27;;;12.00;99.90;;;;;;5088539;28;20233;-76
2021/03/03 11:47:11;;;;;;;23.77;19.17;;;12.10;99.90;;;;;;5088688;28;20688;-76
2021/03/03 11:49:37;;;;;;;25.60;19.33;;;12.30;99.90;;;;;;5088616;28;20693;-76
2021/03/03 11:52:04;;;;;;;23.73;19.40;;;12.40;99.90;;;;;;5088678;28;20233;-76
2021/03/03 11:54:31;;;;;;;25.07;19.73;;;12.50;99.90;;;;;;5087961;28;20202;-76
2021/03/03 11:56:59;;;;;;;23.47;18.90;;;12.60;99.90;;;;;;5088138;28;20256;-76
2021/03/03 11:59:25;;;;;;;24.23;19.77;;;12.70;99.90;;;;;;5087866;28;20242;-75
2021/03/03 12:01:53;;;;;;;23.57;18.97;;;12.80;99.90;;;;;;5087758;28;20195;-76
2021/03/03 12:04:19;;;;;;;23.87;19.13;;;12.90;99.90;;;;;;5087994;28;20214;-75
2021/03/03 12:06:46;;;;;;;20.20;17.67;;;13.00;99.90;;;;;;5088213;28;20230;-78
2021/03/03 12:09:13;;;;;;;25.27;19.33;;;13.20;99.90;;;;;;5087632;28;20572;-76
2021/03/03 12:11:40;;;;;;;22.63;18.93;;;13.20;99.90;;;;;;5087757;28;20980;-76
2021/03/03 12:14:07;;;;;;;22.50;18.33;;;13.40;99.90;;;;;;5087894;28;20661;-76
2021/03/03 12:16:34;;;;;;;24.47;19.03;;;13.50;99.90;;;;;;5087574;28;20629;-76
2021/03/03 12:19:01;;;;;;;25.80;19.00;;;13.60;99.90;;;;;;5087969;28;20569;-76
2021/03/03 12:21:28;;;;;;;19.90;17.73;;;13.80;99.90;;;;;;5088018;28;20794;-76
2021/03/03 12:23:54;;;;;;;23.53;17.57;;;13.90;99.90;;;;;;5087913;28;20601;-76
2021/03/03 12:26:21;;;;;;;26.00;18.20;;;14.00;99.90;;;;;;5087808;28;20207;-76
2021/03/03 12:28:48;;;;;;;23.17;19.20;;;14.00;99.90;;;;;;5087958;28;20665;-76
2021/03/03 12:31:16;;;;;;;21.57;17.03;;;14.10;99.90;;;;;;5087759;28;20240;-77
2021/03/03 12:33:42;;;;;;;21.73;18.57;;;14.20;99.90;;;;;;5087188;28;20213;-76
2021/03/03 12:36:09;;;;;;;22.70;16.00;;;14.20;99.90;;;;;;5087842;28;20665;-76
2021/03/03 12:38:36;;;;;;;19.13;14.60;;;14.40;99.90;;;;;;5088094;28;20234;-76
2021/03/03 12:41:03;;;;;;;18.07;13.70;;;14.50;99.90;;;;;;5087609;28;20606;-76
2021/03/03 12:43:31;;;;;;;17.80;14.30;;;14.50;99.90;;;;;;5087448;28;20207;-76
2021/03/03 12:45:58;;;;;;;17.97;15.53;;;14.50;99.90;;;;;;5090938;28;20227;-76